createdAt,value
2024-02-02T00:01:35.886Z,102186.44
2024-02-02T00:04:04.395Z,102176.06
2024-02-02T00:06:32.588Z,102166.16
2024-02-02T00:09:01.291Z,102172.81
2024-02-02T00:11:29.748Z,102135.50
2024-02-02T00:13:57.939Z,102143.06
2024-02-02T00:16:27.457Z,102172.22
2024-02-02T00:18:55.858Z,102175.38
2024-02-02T00:21:24.109Z,102165.44
2024-02-02T00:23:52.142Z,102152.28
2024-02-02T00:26:20.278Z,102150.34
2024-02-02T00:28:48.414Z,102149.38
2024-02-02T00:31:17.216Z,102107.34
2024-02-02T00:33:49.299Z,102141.13
2024-02-02T00:36:20.043Z,102148.81
2024-02-02T00:38:48.272Z,102133.78
2024-02-02T00:41:16.413Z,102149.28
2024-02-02T00:43:44.506Z,102145.00
2024-02-02T00:46:12.583Z,102146.25
2024-02-02T00:48:40.884Z,102129.06
2024-02-02T00:51:12.473Z,102139.25
2024-02-02T00:53:40.705Z,102138.97
2024-02-02T00:56:08.875Z,102126.13
2024-02-02T00:58:36.937Z,102126.66
2024-02-02T01:01:05.460Z,102118.56
2024-02-02T01:03:35.227Z,102117.63
2024-02-02T01:06:04.687Z,102133.25
2024-02-02T01:08:34.032Z,102130.31
2024-02-02T01:11:03.658Z,102147.69
2024-02-02T01:13:32.099Z,102121.38
2024-02-02T01:16:00.116Z,102148.69
2024-02-02T01:18:28.287Z,102156.31
2024-02-02T01:20:57.072Z,102143.38
2024-02-02T01:23:25.206Z,102158.28
2024-02-02T01:25:54.916Z,102154.88
2024-02-02T01:28:23.208Z,102148.78
2024-02-02T01:30:51.484Z,102153.22
2024-02-02T01:33:19.614Z,102156.38
2024-02-02T01:35:49.775Z,102150.13
2024-02-02T01:38:17.819Z,102139.78
2024-02-02T01:40:46.212Z,102157.41
2024-02-02T01:43:16.081Z,102154.59
2024-02-02T01:45:44.275Z,102163.56
2024-02-02T01:48:12.401Z,102159.34
2024-02-02T01:50:40.929Z,102166.72
2024-02-02T01:53:09.333Z,102164.66
2024-02-02T01:55:38.803Z,102160.03
2024-02-02T01:58:06.855Z,102153.72
2024-02-02T02:00:38.139Z,102157.88
2024-02-02T02:03:06.910Z,102149.75
2024-02-02T02:05:37.137Z,102140.91
2024-02-02T02:08:06.884Z,102151.16
2024-02-02T02:10:35.627Z,102137.06
2024-02-02T02:13:04.318Z,102113.41
2024-02-02T02:15:32.486Z,102115.78
2024-02-02T02:18:02.133Z,102138.38
2024-02-02T02:20:32.364Z,102117.38
2024-02-02T02:23:02.138Z,102115.19
2024-02-02T02:25:30.834Z,102137.06
2024-02-02T02:27:58.993Z,102112.81
2024-02-02T02:30:27.509Z,102130.50
2024-02-02T02:32:56.064Z,102084.59
2024-02-02T02:35:24.367Z,102126.88
2024-02-02T02:37:53.227Z,102100.38
2024-02-02T02:40:25.513Z,102103.84
2024-02-02T02:42:53.558Z,102110.28
2024-02-02T02:45:22.305Z,102088.84
2024-02-02T02:47:50.858Z,102118.91
2024-02-02T02:50:19.151Z,102112.25
2024-02-02T02:52:47.177Z,102111.06
2024-02-02T02:55:15.473Z,102109.56
2024-02-02T02:57:44.921Z,102105.88
2024-02-02T03:00:14.241Z,102090.63
2024-02-02T03:02:42.613Z,102104.41
2024-02-02T03:05:10.812Z,102090.63
2024-02-02T03:07:38.847Z,102095.31
2024-02-02T03:10:07.474Z,102086.34
2024-02-02T03:12:35.676Z,102086.88
2024-02-02T03:15:06.081Z,102082.19
2024-02-02T03:17:34.693Z,102085.84
2024-02-02T03:20:02.966Z,102079.56
2024-02-02T03:22:31.087Z,102071.97
2024-02-02T03:24:59.036Z,102054.91
2024-02-02T03:27:27.023Z,102051.84
2024-02-02T03:29:56.139Z,102057.47
2024-02-02T03:32:25.428Z,102022.34
2024-02-02T03:34:52.508Z,102046.44
2024-02-02T03:37:21.124Z,102050.50
2024-02-02T03:39:49.447Z,102060.09
2024-02-02T03:42:17.936Z,102055.06
2024-02-02T03:44:46.286Z,102052.31
2024-02-02T03:47:14.200Z,102046.06
2024-02-02T03:49:44.402Z,102053.13
2024-02-02T03:52:12.552Z,102059.25
2024-02-02T03:54:40.836Z,102030.00
2024-02-02T03:57:08.927Z,102052.00
2024-02-02T03:59:37.128Z,102079.31
2024-02-02T04:02:05.344Z,102077.94
2024-02-02T04:04:33.497Z,102073.00
2024-02-02T04:07:03.434Z,102062.00
2024-02-02T04:09:31.604Z,102066.78
2024-02-02T04:11:59.627Z,102083.47
2024-02-02T04:14:27.781Z,102086.09
2024-02-02T04:16:56.023Z,102067.53
2024-02-02T04:19:24.473Z,102073.06
2024-02-02T04:21:52.687Z,102061.84
2024-02-02T04:24:23.119Z,102053.25
2024-02-02T04:26:51.575Z,102048.97
2024-02-02T04:29:20.253Z,102064.06
2024-02-02T04:31:48.327Z,102060.47
2024-02-02T04:34:16.799Z,102059.28
2024-02-02T04:36:44.856Z,102063.44
2024-02-02T04:39:13.043Z,102033.22
2024-02-02T04:41:42.563Z,102021.56
2024-02-02T04:44:10.500Z,102018.63
2024-02-02T04:46:39.592Z,102016.78
2024-02-02T04:49:07.907Z,102012.34
2024-02-02T04:51:36.476Z,102002.53
2024-02-02T04:54:04.674Z,102017.03
2024-02-02T04:56:32.895Z,102015.28
2024-02-02T04:59:03.037Z,102010.75
2024-02-02T05:01:31.741Z,102000.06
2024-02-02T05:03:59.900Z,102019.47
2024-02-02T05:06:28.327Z,102033.59
2024-02-02T05:08:56.696Z,102011.34
2024-02-02T05:11:24.903Z,102022.78
2024-02-02T05:13:53.179Z,102000.56
2024-02-02T05:16:22.587Z,102004.22
2024-02-02T05:18:51.993Z,101991.94
2024-02-02T05:21:20.371Z,101995.59
2024-02-02T05:23:49.907Z,101979.88
2024-02-02T05:26:18.988Z,101973.25
2024-02-02T05:28:47.167Z,101961.50
2024-02-02T05:31:15.721Z,101931.97
2024-02-02T05:33:47.506Z,101950.91
2024-02-02T05:36:16.424Z,101927.81
2024-02-02T05:38:44.429Z,101916.38
2024-02-02T05:41:12.548Z,101903.50
2024-02-02T05:43:40.478Z,101915.28
2024-02-02T05:46:08.464Z,101902.16
2024-02-02T05:48:36.732Z,101923.75
2024-02-02T05:51:06.776Z,101932.34
2024-02-02T05:53:34.933Z,101945.75
2024-02-02T05:56:03.038Z,101936.03
2024-02-02T05:58:31.174Z,101929.31
2024-02-02T06:00:59.266Z,101937.41
2024-02-02T06:03:27.337Z,101929.69
2024-02-02T06:05:55.639Z,101931.63
2024-02-02T06:08:25.206Z,101926.22
2024-02-02T06:10:53.441Z,101930.03
2024-02-02T06:13:21.546Z,101944.28
2024-02-02T06:15:49.709Z,101936.19
2024-02-02T06:18:18.429Z,101913.94
2024-02-02T06:20:46.650Z,101931.50
2024-02-02T06:23:14.886Z,101918.50
2024-02-02T06:25:44.438Z,101903.50
2024-02-02T06:28:14.927Z,101878.81
2024-02-02T06:30:43.913Z,101887.78
2024-02-02T06:33:12.822Z,101882.88
2024-02-02T06:35:41.249Z,101869.75
2024-02-02T06:38:09.300Z,101865.69
2024-02-02T06:40:37.362Z,101871.56
2024-02-02T06:43:07.298Z,101853.91
2024-02-02T06:45:36.013Z,101877.59
2024-02-02T06:48:05.316Z,101858.31
2024-02-02T06:50:33.748Z,101874.78
2024-02-02T06:53:03.350Z,101871.56
2024-02-02T06:55:31.474Z,101868.25
2024-02-02T06:57:59.712Z,101882.38
2024-02-02T07:00:32.536Z,101883.25
2024-02-02T07:03:01.098Z,101846.41
2024-02-02T07:05:29.660Z,101870.84
2024-02-02T07:07:57.628Z,101881.41
2024-02-02T07:10:26.023Z,101883.13
2024-02-02T07:13:02.088Z,101889.97
2024-02-02T07:15:34.020Z,101884.94
2024-02-02T07:18:04.337Z,101880.03
2024-02-02T07:21:08.433Z,101888.38
2024-02-02T07:23:40.672Z,101883.38
2024-02-02T07:26:20.246Z,101892.94
2024-02-02T07:28:48.440Z,101888.38
2024-02-02T07:31:34.946Z,101887.28
2024-02-02T07:34:08.574Z,101875.22
2024-02-02T07:36:37.037Z,101880.38
2024-02-02T07:39:04.992Z,101877.19
2024-02-02T07:41:33.399Z,101876.34
2024-02-02T07:44:02.925Z,101881.00
2024-02-02T07:46:33.942Z,101868.31
2024-02-02T07:49:04.695Z,101849.19
2024-02-02T07:51:33.045Z,101886.03
2024-02-02T07:54:01.133Z,101884.91
2024-02-02T07:56:29.306Z,101888.47
2024-02-02T07:58:59.993Z,101882.19
2024-02-02T08:01:29.513Z,101887.22
2024-02-02T08:04:00.566Z,101871.72
2024-02-02T08:06:29.316Z,101864.69
2024-02-02T08:08:58.374Z,101881.78
2024-02-02T08:11:29.729Z,101872.41
2024-02-02T08:13:58.118Z,101865.75
2024-02-02T08:16:26.303Z,101861.09
2024-02-02T08:18:54.554Z,101861.59
2024-02-02T08:21:26.552Z,101872.00
2024-02-02T08:23:57.139Z,101858.31
2024-02-02T08:26:28.333Z,101858.31
2024-02-02T08:28:56.511Z,101857.13
2024-02-02T08:31:25.168Z,101848.97
2024-02-02T08:33:53.836Z,101826.44
2024-02-02T08:36:22.378Z,101835.72
2024-02-02T08:38:52.061Z,101826.53
2024-02-02T08:41:20.215Z,101838.03
2024-02-02T08:43:50.500Z,101836.28
2024-02-02T08:46:22.103Z,101827.81
2024-02-02T08:48:52.581Z,101817.66
2024-02-02T08:51:54.234Z,101790.09
2024-02-02T08:54:36.080Z,101811.66
2024-02-02T08:57:30.637Z,101810.13
2024-02-02T09:00:06.065Z,101800.78
2024-02-02T09:03:07.520Z,101807.94
2024-02-02T09:05:52.005Z,101813.78
2024-02-02T09:08:43.126Z,101799.88
2024-02-02T09:11:19.292Z,101813.00
2024-02-02T09:13:48.681Z,101807.69
2024-02-02T09:16:19.710Z,101804.56
2024-02-02T09:18:56.151Z,101812.34
2024-02-02T09:21:29.771Z,101800.91
2024-02-02T09:23:58.422Z,101816.53
2024-02-02T09:26:38.549Z,101811.63
2024-02-02T09:29:07.100Z,101803.69
2024-02-02T09:31:38.548Z,101804.34
2024-02-02T09:34:10.648Z,101782.81
2024-02-02T09:36:41.140Z,101791.94
2024-02-02T09:39:40.109Z,101783.00
2024-02-02T09:42:25.336Z,101800.78
2024-02-02T09:44:59.931Z,101791.28
2024-02-02T09:47:47.543Z,101794.84
2024-02-02T09:50:37.411Z,101791.88
2024-02-02T09:53:21.963Z,101792.47
2024-02-02T09:55:59.130Z,101797.09
2024-02-02T09:58:36.909Z,101794.00
2024-02-02T10:01:26.893Z,101758.25
2024-02-02T10:04:09.979Z,101793.44
2024-02-02T10:06:46.976Z,101787.19
2024-02-02T10:09:36.216Z,101750.94
2024-02-02T10:12:15.235Z,101783.81
2024-02-02T10:15:16.850Z,101771.25
2024-02-02T10:18:14.231Z,101775.53
2024-02-02T10:20:50.114Z,101767.31
2024-02-02T10:23:47.003Z,101772.09
2024-02-02T10:26:29.778Z,101789.28
2024-02-02T10:29:09.126Z,101792.72
2024-02-02T10:31:53.707Z,101763.31
2024-02-02T10:34:35.792Z,101773.31
2024-02-02T10:37:22.208Z,101774.41
2024-02-02T10:40:10.842Z,101784.28
2024-02-02T10:42:54.435Z,101785.41
2024-02-02T10:45:33.078Z,101788.16
2024-02-02T10:48:21.862Z,101778.03
2024-02-02T10:50:54.254Z,101782.59
2024-02-02T10:53:31.952Z,101778.28
2024-02-02T10:56:12.135Z,101780.47
2024-02-02T10:58:51.642Z,101785.03
2024-02-02T11:01:31.967Z,101771.91
2024-02-02T11:04:11.031Z,101764.25
2024-02-02T11:06:47.510Z,101760.09
2024-02-02T11:09:24.883Z,101730.56
2024-02-02T11:12:05.158Z,101699.03
2024-02-02T11:14:40.093Z,101737.03
2024-02-02T11:17:16.026Z,101735.16
2024-02-02T11:20:02.936Z,101733.16
2024-02-02T11:22:38.993Z,101732.31
2024-02-02T11:25:16.172Z,101732.47
2024-02-02T11:27:55.405Z,101724.66
2024-02-02T11:30:48.211Z,101715.50
2024-02-02T11:33:28.047Z,101713.25
2024-02-02T11:36:06.171Z,101706.53
2024-02-02T11:38:47.075Z,101704.22
2024-02-02T11:41:20.665Z,101708.78
2024-02-02T11:43:50.297Z,101711.50
2024-02-02T11:46:23.214Z,101720.94
2024-02-02T11:48:54.684Z,101691.25
2024-02-02T11:51:25.590Z,101704.25
2024-02-02T11:53:59.966Z,101696.81
2024-02-02T11:56:34.707Z,101681.28
2024-02-02T11:59:10.044Z,101680.41
2024-02-02T12:01:49.506Z,101683.00
2024-02-02T12:04:37.524Z,101678.13
2024-02-02T12:07:23.387Z,101674.56
2024-02-02T12:09:56.616Z,101672.44
2024-02-02T12:12:33.960Z,101669.44
2024-02-02T12:15:02.448Z,101643.06
2024-02-02T12:17:31.214Z,101654.31
2024-02-02T12:19:59.871Z,101646.47
2024-02-02T12:22:32.499Z,101636.19
2024-02-02T12:25:00.991Z,101649.63
2024-02-02T12:27:30.734Z,101644.19
2024-02-02T12:30:00.748Z,101642.13
2024-02-02T12:32:29.558Z,101640.41
2024-02-02T12:34:58.935Z,101617.84
2024-02-02T12:37:27.650Z,101626.13
2024-02-02T12:39:57.869Z,101636.97
2024-02-02T12:42:26.428Z,101640.06
2024-02-02T12:44:54.881Z,101633.84
2024-02-02T12:47:27.613Z,101634.88
2024-02-02T12:49:56.471Z,101623.91
2024-02-02T12:52:24.914Z,101608.22
2024-02-02T12:54:53.762Z,101615.72
2024-02-02T12:57:23.287Z,101621.59
2024-02-02T12:59:51.596Z,101611.56
2024-02-02T13:02:24.369Z,101584.16
2024-02-02T13:04:54.255Z,101588.31
2024-02-02T13:07:22.615Z,101597.56
2024-02-02T13:09:52.493Z,101596.56
2024-02-02T13:12:30.144Z,101593.97
2024-02-02T13:15:09.606Z,101609.94
2024-02-02T13:17:38.511Z,101601.88
2024-02-02T13:20:17.598Z,101595.06
2024-02-02T13:22:51.136Z,101592.03
2024-02-02T13:25:25.859Z,101602.19
2024-02-02T13:27:56.153Z,101597.34
2024-02-02T13:30:28.067Z,101593.34
2024-02-02T13:32:58.341Z,101564.56
2024-02-02T13:35:32.615Z,101582.97
2024-02-02T13:38:03.938Z,101563.00
2024-02-02T13:40:32.820Z,101582.72
2024-02-02T13:43:02.665Z,101558.78
2024-02-02T13:45:31.707Z,101571.19
2024-02-02T13:48:02.347Z,101562.38
2024-02-02T13:50:41.651Z,101564.91
2024-02-02T13:53:10.535Z,101568.34
2024-02-02T13:55:40.441Z,101572.22
2024-02-02T13:58:10.386Z,101580.66
2024-02-02T14:00:38.547Z,101578.06
2024-02-02T14:03:08.859Z,101575.72
2024-02-02T14:05:38.097Z,101558.75
2024-02-02T14:08:06.664Z,101561.75
2024-02-02T14:10:42.849Z,101572.59
2024-02-02T14:13:18.026Z,101573.72
2024-02-02T14:15:46.955Z,101570.03
2024-02-02T14:18:15.257Z,101585.44
2024-02-02T14:20:43.733Z,101578.19
2024-02-02T14:23:13.232Z,101579.19
2024-02-02T14:25:41.271Z,101572.06
2024-02-02T14:28:18.123Z,101553.13
2024-02-02T14:30:47.227Z,101580.91
2024-02-02T14:33:25.051Z,101577.63
2024-02-02T14:35:55.928Z,101583.34
2024-02-02T14:38:24.508Z,101579.25
2024-02-02T14:40:54.416Z,101592.56
2024-02-02T14:43:24.103Z,101572.75
2024-02-02T14:45:52.565Z,101572.16
2024-02-02T14:48:22.774Z,101568.84
2024-02-02T14:50:52.088Z,101567.88
2024-02-02T14:53:20.385Z,101564.44
2024-02-02T14:55:48.670Z,101561.72
2024-02-02T14:58:16.947Z,101559.72
2024-02-02T15:00:49.084Z,101557.88
2024-02-02T15:03:17.569Z,101559.31
2024-02-02T15:05:46.092Z,101556.59
2024-02-02T15:08:14.456Z,101563.53
2024-02-02T15:10:42.736Z,101562.97
2024-02-02T15:13:11.839Z,101557.00
2024-02-02T15:15:40.109Z,101565.00
2024-02-02T15:18:09.977Z,101562.44
2024-02-02T15:20:38.219Z,101549.56
2024-02-02T15:23:06.432Z,101556.16
2024-02-02T15:25:34.610Z,101553.59
2024-02-02T15:28:02.938Z,101544.75
2024-02-02T15:30:31.861Z,101546.00
2024-02-02T15:33:00.190Z,101546.97
2024-02-02T15:35:29.996Z,101561.28
2024-02-02T15:37:58.434Z,101562.69
2024-02-02T15:40:26.448Z,101566.25
2024-02-02T15:42:56.201Z,101565.28
2024-02-02T15:45:24.492Z,101575.00
2024-02-02T15:47:52.649Z,101570.16
2024-02-02T15:50:20.872Z,101576.72
2024-02-02T15:52:50.444Z,101590.72
2024-02-02T15:55:18.578Z,101603.44
2024-02-02T15:57:52.024Z,101609.56
2024-02-02T16:00:21.261Z,101596.44
2024-02-02T16:02:50.085Z,101610.56
2024-02-02T16:05:18.620Z,101608.28
2024-02-02T16:07:47.409Z,101589.59
2024-02-02T16:10:18.664Z,101587.50
2024-02-02T16:12:48.225Z,101601.88
2024-02-02T16:15:16.733Z,101608.63
2024-02-02T16:17:45.109Z,101607.59
2024-02-02T16:20:14.095Z,101605.91
2024-02-02T16:22:43.303Z,101583.38
2024-02-02T16:25:13.517Z,101593.63
2024-02-02T16:27:43.068Z,101598.47
2024-02-02T16:30:13.761Z,101596.75
2024-02-02T16:32:41.957Z,101605.34
2024-02-02T16:35:10.416Z,101606.19
2024-02-02T16:37:40.035Z,101598.94
2024-02-02T16:40:09.932Z,101605.91
2024-02-02T16:42:41.578Z,101603.00
2024-02-02T16:45:11.945Z,101600.50
2024-02-02T16:47:40.399Z,101616.88
2024-02-02T16:50:09.309Z,101605.06
2024-02-02T16:52:38.136Z,101607.59
2024-02-02T16:55:07.734Z,101601.88
2024-02-02T16:57:36.187Z,101604.16
2024-02-02T17:00:06.356Z,101604.31
2024-02-02T17:02:37.109Z,101610.91
2024-02-02T17:05:05.571Z,101608.63
2024-02-02T17:07:34.222Z,101600.50
2024-02-02T17:10:02.677Z,101604.78
2024-02-02T17:12:31.054Z,101602.19
2024-02-02T17:14:59.725Z,101594.50
2024-02-02T17:17:28.021Z,101625.03
2024-02-02T17:19:58.138Z,101602.75
2024-02-02T17:22:26.368Z,101619.19
2024-02-02T17:24:54.747Z,101605.91
2024-02-02T17:27:23.227Z,101601.59
2024-02-02T17:29:51.304Z,101601.03
2024-02-02T17:32:21.743Z,101602.91
2024-02-02T17:34:50.191Z,101594.34
2024-02-02T17:37:19.924Z,101586.47
2024-02-02T17:39:48.713Z,101579.91
2024-02-02T17:42:17.537Z,101588.47
2024-02-02T17:44:45.687Z,101589.34
2024-02-02T17:47:13.623Z,101587.03
2024-02-02T17:49:45.705Z,101581.31
2024-02-02T17:52:19.345Z,101585.78
2024-02-02T17:54:47.728Z,101594.75
2024-02-02T17:57:16.295Z,101583.91
2024-02-02T17:59:44.617Z,101591.03
2024-02-02T18:02:13.124Z,101584.50
2024-02-02T18:04:41.322Z,101585.50
2024-02-02T18:07:12.707Z,101581.06
2024-02-02T18:09:43.014Z,101587.22
2024-02-02T18:12:12.741Z,101585.06
2024-02-02T18:14:40.910Z,101568.91
2024-02-02T18:17:09.753Z,101568.50
2024-02-02T18:19:38.259Z,101577.94
2024-02-02T18:22:06.616Z,101571.50
2024-02-02T18:24:35.075Z,101573.91
2024-02-02T18:27:05.947Z,101576.75
2024-02-02T18:29:34.703Z,101561.09
2024-02-02T18:32:02.868Z,101563.63
2024-02-02T18:34:31.234Z,101567.75
2024-02-02T18:36:59.657Z,101571.03
2024-02-02T18:39:27.824Z,101565.59
2024-02-02T18:41:56.224Z,101573.75
2024-02-02T18:44:25.809Z,101577.91
2024-02-02T18:46:54.181Z,101571.31
2024-02-02T18:49:22.651Z,101581.31
2024-02-02T18:51:51.077Z,101573.28
2024-02-02T18:54:19.408Z,101569.28
2024-02-02T18:56:47.669Z,101565.44
2024-02-02T18:59:15.976Z,101566.47
2024-02-02T19:01:45.767Z,101534.78
2024-02-02T19:04:14.650Z,101576.41
2024-02-02T19:06:43.083Z,101571.97
2024-02-02T19:09:15.093Z,101571.53
2024-02-02T19:11:43.265Z,101567.03
2024-02-02T19:14:13.434Z,101577.28
2024-02-02T19:16:44.509Z,101572.41
2024-02-02T19:19:14.550Z,101575.25
2024-02-02T19:21:44.872Z,101572.41
2024-02-02T19:24:13.402Z,101573.09
2024-02-02T19:26:41.950Z,101580.94
2024-02-02T19:29:10.489Z,101583.25
2024-02-02T19:31:40.182Z,101586.81
2024-02-02T19:34:09.096Z,101599.25
2024-02-02T19:36:39.333Z,101575.53
2024-02-02T19:39:10.439Z,101599.53
2024-02-02T19:41:38.632Z,101588.09
2024-02-02T19:44:08.409Z,101593.66
2024-02-02T19:46:39.697Z,101591.50
2024-02-02T19:49:11.377Z,101574.09
2024-02-02T19:51:43.144Z,101593.19
2024-02-02T19:54:11.592Z,101593.50
2024-02-02T19:56:39.935Z,101596.63
2024-02-02T19:59:08.284Z,101610.06
2024-02-02T20:01:36.715Z,101607.91
2024-02-02T20:04:05.637Z,101612.59
2024-02-02T20:06:34.156Z,101608.00
2024-02-02T20:09:06.592Z,101596.34
2024-02-02T20:11:34.914Z,101596.94
2024-02-02T20:14:03.280Z,101601.72
2024-02-02T20:16:31.730Z,101594.31
2024-02-02T20:19:01.947Z,101600.28
2024-02-02T20:21:32.029Z,101599.13
2024-02-02T20:24:01.670Z,101596.16
2024-02-02T20:26:31.636Z,101599.44
2024-02-02T20:29:00.283Z,101601.13
2024-02-02T20:31:29.119Z,101590.63
2024-02-02T20:33:58.464Z,101589.56
2024-02-02T20:36:29.417Z,101589.41
2024-02-02T20:38:58.095Z,101584.53
2024-02-02T20:41:27.182Z,101575.53
2024-02-02T20:43:59.531Z,101567.19
2024-02-02T20:46:28.315Z,101590.09
2024-02-02T20:48:56.845Z,101584.63
2024-02-02T20:51:25.470Z,101586.19
2024-02-02T20:53:54.069Z,101566.69
2024-02-02T20:56:22.680Z,101582.78
2024-02-02T20:58:51.629Z,101583.94
2024-02-02T21:01:21.597Z,101578.75
2024-02-02T21:03:50.226Z,101581.16
2024-02-02T21:06:18.823Z,101569.69
2024-02-02T21:08:47.404Z,101568.28
2024-02-02T21:11:16.236Z,101559.56
2024-02-02T21:13:46.009Z,101556.88
2024-02-02T21:16:16.351Z,101551.00
2024-02-02T21:18:46.084Z,101556.44
2024-02-02T21:21:22.085Z,101564.28
2024-02-02T21:23:51.560Z,101565.25
2024-02-02T21:26:20.057Z,101565.72
2024-02-02T21:28:48.384Z,101571.16
2024-02-02T21:31:16.480Z,101563.81
2024-02-02T21:33:46.357Z,101571.09
2024-02-02T21:36:15.106Z,101567.66
2024-02-02T21:38:43.494Z,101574.44
2024-02-02T21:41:11.670Z,101559.69
2024-02-02T21:43:39.757Z,101567.13
2024-02-02T21:46:07.617Z,101581.66
2024-02-02T21:48:36.122Z,101578.41
2024-02-02T21:51:08.306Z,101578.53
2024-02-02T21:53:36.450Z,101574.44
2024-02-02T21:56:05.842Z,101568.22
2024-02-02T21:58:33.845Z,101572.13
2024-02-02T22:01:02.556Z,101570.25
2024-02-02T22:03:30.873Z,101558.66
2024-02-02T22:05:59.117Z,101559.09
2024-02-02T22:08:28.616Z,101545.72
2024-02-02T22:10:56.750Z,101558.31
2024-02-02T22:13:24.705Z,101560.06
2024-02-02T22:15:52.802Z,101553.88
2024-02-02T22:18:20.986Z,101554.03
2024-02-02T22:20:49.113Z,101557.22
2024-02-02T22:23:17.281Z,101555.22
2024-02-02T22:25:46.594Z,101554.50
2024-02-02T22:28:14.695Z,101550.88
2024-02-02T22:30:43.017Z,101533.25
2024-02-02T22:33:11.328Z,101546.81
2024-02-02T22:35:40.707Z,101541.69
2024-02-02T22:38:08.812Z,101539.69
2024-02-02T22:40:36.891Z,101553.81
2024-02-02T22:43:06.574Z,101547.22
2024-02-02T22:45:34.629Z,101529.13
2024-02-02T22:48:02.850Z,101540.91
2024-02-02T22:50:30.970Z,101537.66
2024-02-02T22:52:59.490Z,101537.34
2024-02-02T22:55:27.701Z,101540.59
2024-02-02T22:57:55.791Z,101547.28
2024-02-02T23:00:25.274Z,101541.31
2024-02-02T23:02:53.465Z,101536.03
2024-02-02T23:05:21.478Z,101544.44
2024-02-02T23:07:49.613Z,101542.16
2024-02-02T23:10:17.949Z,101539.63
2024-02-02T23:12:46.604Z,101541.94
2024-02-02T23:15:14.924Z,101553.66
2024-02-02T23:17:44.426Z,101550.78
2024-02-02T23:20:13.309Z,101547.06
2024-02-02T23:22:41.576Z,101536.72
2024-02-02T23:25:10.134Z,101543.00
2024-02-02T23:27:38.616Z,101556.47
2024-02-02T23:30:08.725Z,101544.19
2024-02-02T23:32:37.292Z,101548.53
2024-02-02T23:35:07.671Z,101542.69
2024-02-02T23:37:35.873Z,101538.59
2024-02-02T23:40:04.524Z,101537.81
2024-02-02T23:42:32.820Z,101542.94
2024-02-02T23:45:01.301Z,101525.00
2024-02-02T23:47:30.027Z,101546.97
2024-02-02T23:49:58.349Z,101533.34
2024-02-02T23:52:28.369Z,101545.97
2024-02-02T23:54:56.477Z,101541.53
2024-02-02T23:57:26.016Z,101543.09
2024-02-02T23:59:54.597Z,101542.94
